createdAt,value
2023-02-24T00:05:00.795Z,43.65
2023-02-24T00:11:09.125Z,43.30
2023-02-24T00:17:14.422Z,30.10
2023-02-24T00:23:18.405Z,47.40
2023-02-24T00:29:20.814Z,37.38
2023-02-24T00:35:22.596Z,35.97
2023-02-24T00:41:30.637Z,31.75
2023-02-24T00:47:33.669Z,25.98
2023-02-24T00:53:39.159Z,32.20
2023-02-24T00:59:40.888Z,30.00
2023-02-24T01:05:42.652Z,35.47
2023-02-24T01:12:05.032Z,35.10
2023-02-24T01:18:06.811Z,37.85
2023-02-24T01:24:10.594Z,37.95
2023-02-24T01:30:15.618Z,34.58
2023-02-24T01:36:20.143Z,29.58
2023-02-24T01:42:23.349Z,32.95
2023-02-24T01:48:26.705Z,27.75
2023-02-24T01:54:35.328Z,31.45
2023-02-24T02:00:39.450Z,34.97
2023-02-24T02:06:41.624Z,36.03
2023-02-24T02:12:44.678Z,30.25
2023-02-24T02:19:13.451Z,32.10
2023-02-24T02:25:31.479Z,36.78
2023-02-24T02:31:55.630Z,33.50
2023-02-24T02:38:15.258Z,30.27
2023-02-24T02:44:32.277Z,34.78
2023-02-24T02:51:04.219Z,30.70
2023-02-24T02:57:14.638Z,43.40
2023-02-24T03:03:18.425Z,38.75
2023-02-24T03:09:35.846Z,32.78
2023-02-24T03:15:42.241Z,34.40
2023-02-24T03:21:46.553Z,40.50
2023-02-24T03:27:58.879Z,47.28
2023-02-24T03:34:07.344Z,38.30
2023-02-24T03:40:17.091Z,33.42
2023-02-24T03:46:20.046Z,41.10
2023-02-24T03:52:29.110Z,35.95
2023-02-24T03:59:12.938Z,31.67
2023-02-24T04:05:22.066Z,31.55
2023-02-24T04:11:41.170Z,26.05
2023-02-24T04:17:53.559Z,28.80
2023-02-24T04:23:56.853Z,27.52
2023-02-24T04:30:01.305Z,41.30
2023-02-24T04:36:04.923Z,34.28
2023-02-24T04:42:11.680Z,30.98
2023-02-24T04:48:13.912Z,35.72
2023-02-24T04:54:17.553Z,32.08
2023-02-24T05:00:21.763Z,17.15
2023-02-24T05:06:23.727Z,33.63
2023-02-24T05:12:25.469Z,31.73
2023-02-24T05:18:29.960Z,28.48
2023-02-24T05:24:31.987Z,27.50
2023-02-24T05:30:33.716Z,30.67
2023-02-24T05:36:40.379Z,29.73
2023-02-24T05:42:42.578Z,21.70
2023-02-24T05:48:44.593Z,29.08
2023-02-24T05:54:48.222Z,28.70
2023-02-24T06:00:50.198Z,33.58
2023-02-24T06:06:54.828Z,32.83
2023-02-24T06:12:56.537Z,25.42
2023-02-24T06:18:58.310Z,30.40
2023-02-24T06:25:00.028Z,21.85
2023-02-24T06:31:06.807Z,25.67
2023-02-24T06:37:12.846Z,27.13
2023-02-24T06:43:14.639Z,32.13
2023-02-24T06:49:16.512Z,35.60
2023-02-24T06:55:27.206Z,16.73
2023-02-24T07:01:29.265Z,25.35
2023-02-24T07:07:31.086Z,24.08
2023-02-24T07:13:34.155Z,27.50
2023-02-24T07:19:37.322Z,21.08
2023-02-24T07:25:41.334Z,18.70
2023-02-24T07:31:43.364Z,15.13
2023-02-24T07:37:48.548Z,24.50
2023-02-24T07:43:51.861Z,19.75
2023-02-24T07:49:55.352Z,20.88
2023-02-24T07:55:57.153Z,25.35
2023-02-24T08:02:00.523Z,16.95
2023-02-24T08:08:03.130Z,19.20
2023-02-24T08:14:13.704Z,20.80
2023-02-24T08:20:15.656Z,17.02
2023-02-24T08:26:19.484Z,19.45
2023-02-24T08:32:24.229Z,16.23
2023-02-24T08:38:28.464Z,13.80
2023-02-24T08:44:30.224Z,16.42
2023-02-24T08:50:33.857Z,19.90
2023-02-24T08:56:35.658Z,11.80
2023-02-24T09:02:42.484Z,17.95
2023-02-24T09:08:45.809Z,22.47
2023-02-24T09:14:55.787Z,13.30
2023-02-24T09:21:15.960Z,16.23
2023-02-24T09:27:17.758Z,11.77
2023-02-24T09:33:42.295Z,17.80
2023-02-24T09:39:56.111Z,21.70
2023-02-24T09:46:14.367Z,14.13
2023-02-24T09:52:18.826Z,12.13
2023-02-24T09:58:43.642Z,9.77
2023-02-24T10:04:56.287Z,16.70
2023-02-24T10:11:07.107Z,12.77
2023-02-24T10:17:25.481Z,15.30
2023-02-24T10:23:56.435Z,13.68
2023-02-24T10:30:41.146Z,19.40
2023-02-24T10:36:47.654Z,12.75
2023-02-24T10:42:49.825Z,17.02
2023-02-24T10:49:00.478Z,13.57
2023-02-24T10:55:08.470Z,17.05
2023-02-24T11:01:58.997Z,15.63
2023-02-24T11:08:33.351Z,16.25
2023-02-24T11:15:11.643Z,18.70
2023-02-24T11:27:20.995Z,10.75
2023-02-24T11:33:34.996Z,20.90
2023-02-24T11:39:50.579Z,12.52
2023-02-24T11:46:01.251Z,16.80
2023-02-24T11:52:06.192Z,14.43
2023-02-24T11:58:16.677Z,13.05
2023-02-24T12:04:37.536Z,17.85
2023-02-24T12:10:48.653Z,18.10
2023-02-24T12:17:03.527Z,18.08
2023-02-24T12:23:30.370Z,12.07
2023-02-24T12:29:42.464Z,15.18
2023-02-24T12:36:16.627Z,13.68
2023-02-24T12:42:44.170Z,14.02
2023-02-24T12:48:46.080Z,12.23
2023-02-24T12:54:53.575Z,13.10
2023-02-24T13:07:10.663Z,12.65
2023-02-24T13:13:37.640Z,19.58
2023-02-24T13:19:41.467Z,15.27
2023-02-24T13:25:51.378Z,13.13
2023-02-24T13:31:53.521Z,10.30
2023-02-24T13:37:55.352Z,16.88
2023-02-24T13:43:59.587Z,14.30
2023-02-24T13:50:31.202Z,12.55
2023-02-24T13:56:56.390Z,17.35
2023-02-24T14:02:59.361Z,10.75
2023-02-24T14:09:04.802Z,14.63
2023-02-24T14:15:13.269Z,12.05
2023-02-24T14:21:22.841Z,19.95
2023-02-24T14:27:27.923Z,13.63
2023-02-24T14:33:35.673Z,15.52
2023-02-24T14:39:37.399Z,22.88
2023-02-24T14:45:51.516Z,19.88
2023-02-24T14:52:01.719Z,17.88
2023-02-24T14:58:15.656Z,18.55
2023-02-24T15:04:34.408Z,17.50
2023-02-24T15:10:36.588Z,16.17
2023-02-24T15:16:38.626Z,15.20
2023-02-24T15:22:50.095Z,14.40
2023-02-24T15:28:59.122Z,16.70
2023-02-24T15:35:01.643Z,15.45
2023-02-24T15:41:06.129Z,16.40
2023-02-24T15:47:23.016Z,14.18
2023-02-24T15:53:24.788Z,18.43
2023-02-24T15:59:27.003Z,15.18
2023-02-24T16:05:28.726Z,18.42
2023-02-24T16:11:38.212Z,17.75
2023-02-24T16:17:41.403Z,21.20
2023-02-24T16:23:43.216Z,19.75
2023-02-24T16:29:45.800Z,19.65
2023-02-24T16:35:48.026Z,20.83
2023-02-24T16:41:49.745Z,23.52
2023-02-24T16:47:51.525Z,23.45
2023-02-24T16:53:53.212Z,19.38
2023-02-24T16:59:55.050Z,21.70
2023-02-24T17:05:57.748Z,25.83
2023-02-24T17:12:00.607Z,28.98
2023-02-24T17:18:02.308Z,31.45
2023-02-24T17:24:04.311Z,33.40
2023-02-24T17:30:06.650Z,29.48
2023-02-24T17:36:11.377Z,27.48
2023-02-24T17:42:13.118Z,31.42
2023-02-24T17:48:15.931Z,28.27
2023-02-24T17:54:17.694Z,27.05
2023-02-24T18:00:19.743Z,26.77
2023-02-24T18:06:21.843Z,24.48
2023-02-24T18:12:24.658Z,26.30
2023-02-24T18:18:27.856Z,24.45
2023-02-24T18:24:29.609Z,20.80
2023-02-24T18:30:31.624Z,26.50
2023-02-24T18:36:33.858Z,27.20
2023-02-24T18:42:35.591Z,26.63
2023-02-24T18:48:37.955Z,29.67
2023-02-24T18:54:39.712Z,30.65
2023-02-24T19:00:42.558Z,32.28
2023-02-24T19:06:48.980Z,27.98
2023-02-24T19:12:52.064Z,29.83
2023-02-24T19:19:24.944Z,34.63
2023-02-24T19:25:26.811Z,26.65
2023-02-24T19:31:30.803Z,22.92
2023-02-24T19:37:33.073Z,21.80
2023-02-24T19:43:35.040Z,20.55
2023-02-24T19:49:36.879Z,20.48
2023-02-24T19:55:38.697Z,21.20
2023-02-24T20:01:43.111Z,22.45
2023-02-24T20:07:44.989Z,20.67
2023-02-24T20:13:47.341Z,18.33
2023-02-24T20:19:49.117Z,16.17
2023-02-24T20:25:52.472Z,18.23
2023-02-24T20:31:54.303Z,18.15
2023-02-24T20:37:56.112Z,20.25
2023-02-24T20:43:57.887Z,14.75
2023-02-24T20:49:59.658Z,11.98
2023-02-24T20:56:02.753Z,14.80
2023-02-24T21:02:04.505Z,16.05
2023-02-24T21:08:06.294Z,15.60
2023-02-24T21:14:08.179Z,17.27
2023-02-24T21:20:11.188Z,23.80
2023-02-24T21:26:13.680Z,20.13
2023-02-24T21:32:15.556Z,21.63
2023-02-24T21:38:17.457Z,14.32
2023-02-24T21:44:19.259Z,24.13
2023-02-24T21:50:21.824Z,23.17
2023-02-24T21:56:26.317Z,23.08
2023-02-24T22:02:28.021Z,25.63
2023-02-24T22:08:29.797Z,29.08
2023-02-24T22:14:32.344Z,34.03
2023-02-24T22:20:34.086Z,22.98
2023-02-24T22:26:35.844Z,33.25
2023-02-24T22:32:37.759Z,28.80
2023-02-24T22:38:39.901Z,25.65
2023-02-24T22:44:41.727Z,25.77
2023-02-24T22:50:44.277Z,37.30
2023-02-24T22:56:46.986Z,24.95
2023-02-24T23:02:48.882Z,20.15
2023-02-24T23:08:51.854Z,23.08
2023-02-24T23:14:54.034Z,25.33
2023-02-24T23:21:00.828Z,29.25
2023-02-24T23:27:02.938Z,23.13
2023-02-24T23:39:58.461Z,24.80
2023-02-24T23:46:04.103Z,20.33
2023-02-24T23:52:06.014Z,19.38
2023-02-24T23:58:08.353Z,21.45
